sensor_id;sensor_type;location;lat;lon;timestamp;temperature;humidity
14934;DHT22;7560;51.364;12.384;2023-02-15T00:02:01;2.90;99.90
14934;DHT22;7560;51.364;12.384;2023-02-15T00:07:04;2.90;99.90
14934;DHT22;7560;51.364;12.384;2023-02-15T00:12:06;2.90;99.90
14934;DHT22;7560;51.364;12.384;2023-02-15T00:17:10;2.70;99.90
14934;DHT22;7560;51.364;12.384;2023-02-15T00:22:12;2.60;99.90
14934;DHT22;7560;51.364;12.384;2023-02-15T00:27:14;2.60;99.90
14934;DHT22;7560;51.364;12.384;2023-02-15T00:32:18;2.60;99.90
14934;DHT22;7560;51.364;12.384;2023-02-15T00:37:20;2.50;99.90
14934;DHT22;7560;51.364;12.384;2023-02-15T00:42:21;2.50;99.90
14934;DHT22;7560;51.364;12.384;2023-02-15T00:47:23;2.40;99.90
14934;DHT22;7560;51.364;12.384;2023-02-15T00:52:26;2.40;99.90
14934;DHT22;7560;51.364;12.384;2023-02-15T00:57:29;2.40;99.90
14934;DHT22;7560;51.364;12.384;2023-02-15T01:02:31;2.30;99.90
14934;DHT22;7560;51.364;12.384;2023-02-15T01:07:34;2.30;99.90
14934;DHT22;7560;51.364;12.384;2023-02-15T01:12:39;2.30;99.90
14934;DHT22;7560;51.364;12.384;2023-02-15T01:17:43;2.30;99.90
14934;DHT22;7560;51.364;12.384;2023-02-15T01:22:47;2.30;99.90
14934;DHT22;7560;51.364;12.384;2023-02-15T01:27:53;2.20;99.90
14934;DHT22;7560;51.364;12.384;2023-02-15T01:32:54;2.20;99.90
14934;DHT22;7560;51.364;12.384;2023-02-15T01:37:57;2.20;99.90
14934;DHT22;7560;51.364;12.384;2023-02-15T01:42:59;2.30;99.90
14934;DHT22;7560;51.364;12.384;2023-02-15T01:48:24;2.20;99.90
14934;DHT22;7560;51.364;12.384;2023-02-15T01:54:07;2.20;99.90
14934;DHT22;7560;51.364;12.384;2023-02-15T01:59:16;2.10;99.90
14934;DHT22;7560;51.364;12.384;2023-02-15T02:04:29;2.00;99.90
14934;DHT22;7560;51.364;12.384;2023-02-15T02:09:34;2.00;99.90
14934;DHT22;7560;51.364;12.384;2023-02-15T02:14:38;2.00;99.90
14934;DHT22;7560;51.364;12.384;2023-02-15T02:20:10;2.00;99.90
14934;DHT22;7560;51.364;12.384;2023-02-15T02:30:36;1.90;99.90
14934;DHT22;7560;51.364;12.384;2023-02-15T02:41:12;1.80;99.90
14934;DHT22;7560;51.364;12.384;2023-02-15T02:46:38;1.80;99.90
14934;DHT22;7560;51.364;12.384;2023-02-15T02:51:42;1.80;99.90
14934;DHT22;7560;51.364;12.384;2023-02-15T02:56:47;1.80;99.90
14934;DHT22;7560;51.364;12.384;2023-02-15T03:02:00;1.80;99.90
14934;DHT22;7560;51.364;12.384;2023-02-15T03:07:08;1.80;99.90
14934;DHT22;7560;51.364;12.384;2023-02-15T03:12:20;1.70;99.90
14934;DHT22;7560;51.364;12.384;2023-02-15T03:17:25;1.70;99.90
14934;DHT22;7560;51.364;12.384;2023-02-15T03:22:35;1.70;99.90
14934;DHT22;7560;51.364;12.384;2023-02-15T03:27:42;1.70;99.90
14934;DHT22;7560;51.364;12.384;2023-02-15T03:32:46;1.60;99.90
14934;DHT22;7560;51.364;12.384;2023-02-15T03:37:59;1.70;99.90
14934;DHT22;7560;51.364;12.384;2023-02-15T03:48:29;1.70;99.90
14934;DHT22;7560;51.364;12.384;2023-02-15T03:53:31;1.70;99.90
14934;DHT22;7560;51.364;12.384;2023-02-15T03:58:33;1.60;99.90
14934;DHT22;7560;51.364;12.384;2023-02-15T04:04:05;1.60;99.90
14934;DHT22;7560;51.364;12.384;2023-02-15T04:09:09;1.60;99.90
14934;DHT22;7560;51.364;12.384;2023-02-15T04:14:31;1.70;99.90
14934;DHT22;7560;51.364;12.384;2023-02-15T04:19:51;1.60;99.90
14934;DHT22;7560;51.364;12.384;2023-02-15T04:25:12;1.50;99.90
14934;DHT22;7560;51.364;12.384;2023-02-15T04:30:16;1.50;99.90
14934;DHT22;7560;51.364;12.384;2023-02-15T04:35:20;1.60;99.90
14934;DHT22;7560;51.364;12.384;2023-02-15T04:40:22;1.50;99.90
14934;DHT22;7560;51.364;12.384;2023-02-15T04:45:24;1.60;99.90
14934;DHT22;7560;51.364;12.384;2023-02-15T04:50:28;1.60;99.90
14934;DHT22;7560;51.364;12.384;2023-02-15T04:55:29;1.60;99.90
14934;DHT22;7560;51.364;12.384;2023-02-15T05:00:31;1.60;99.90
14934;DHT22;7560;51.364;12.384;2023-02-15T05:05:33;1.50;99.90
14934;DHT22;7560;51.364;12.384;2023-02-15T05:10:35;1.50;99.90
14934;DHT22;7560;51.364;12.384;2023-02-15T05:15:40;1.50;99.90
14934;DHT22;7560;51.364;12.384;2023-02-15T05:20:45;1.60;99.90
14934;DHT22;7560;51.364;12.384;2023-02-15T05:25:50;1.60;99.90
14934;DHT22;7560;51.364;12.384;2023-02-15T05:31:13;1.60;99.90
14934;DHT22;7560;51.364;12.384;2023-02-15T05:36:16;1.60;99.90
14934;DHT22;7560;51.364;12.384;2023-02-15T05:41:18;1.60;99.90
14934;DHT22;7560;51.364;12.384;2023-02-15T05:46:20;1.50;99.90
14934;DHT22;7560;51.364;12.384;2023-02-15T05:51:26;1.60;99.90
14934;DHT22;7560;51.364;12.384;2023-02-15T05:56:28;1.60;99.90
14934;DHT22;7560;51.364;12.384;2023-02-15T06:01:30;1.60;99.90
14934;DHT22;7560;51.364;12.384;2023-02-15T06:06:35;1.60;99.90
14934;DHT22;7560;51.364;12.384;2023-02-15T06:11:37;1.50;99.90
14934;DHT22;7560;51.364;12.384;2023-02-15T06:16:39;1.50;99.90
14934;DHT22;7560;51.364;12.384;2023-02-15T06:21:42;1.60;99.90
14934;DHT22;7560;51.364;12.384;2023-02-15T06:26:46;1.60;99.90
14934;DHT22;7560;51.364;12.384;2023-02-15T06:31:48;1.60;99.90
14934;DHT22;7560;51.364;12.384;2023-02-15T06:36:51;1.60;99.90
14934;DHT22;7560;51.364;12.384;2023-02-15T06:41:53;1.60;99.90
14934;DHT22;7560;51.364;12.384;2023-02-15T06:46:55;1.70;99.90
14934;DHT22;7560;51.364;12.384;2023-02-15T06:51:58;1.70;99.90
14934;DHT22;7560;51.364;12.384;2023-02-15T06:57:04;1.80;99.90
14934;DHT22;7560;51.364;12.384;2023-02-15T07:02:11;1.80;99.90
14934;DHT22;7560;51.364;12.384;2023-02-15T07:07:14;1.90;99.90
14934;DHT22;7560;51.364;12.384;2023-02-15T07:12:15;1.90;99.90
14934;DHT22;7560;51.364;12.384;2023-02-15T07:17:36;1.90;99.90
14934;DHT22;7560;51.364;12.384;2023-02-15T07:22:39;2.10;99.90
14934;DHT22;7560;51.364;12.384;2023-02-15T07:27:41;2.30;99.90
14934;DHT22;7560;51.364;12.384;2023-02-15T07:32:43;2.20;99.90
14934;DHT22;7560;51.364;12.384;2023-02-15T07:38:06;2.30;99.90
14934;DHT22;7560;51.364;12.384;2023-02-15T07:43:08;2.40;99.90
14934;DHT22;7560;51.364;12.384;2023-02-15T07:48:10;2.40;99.90
14934;DHT22;7560;51.364;12.384;2023-02-15T07:53:12;2.50;99.90
14934;DHT22;7560;51.364;12.384;2023-02-15T07:58:16;2.60;99.90
14934;DHT22;7560;51.364;12.384;2023-02-15T08:03:23;2.70;99.90
14934;DHT22;7560;51.364;12.384;2023-02-15T08:08:28;2.80;99.90
14934;DHT22;7560;51.364;12.384;2023-02-15T08:13:33;2.90;99.90
14934;DHT22;7560;51.364;12.384;2023-02-15T08:18:38;3.00;99.90
14934;DHT22;7560;51.364;12.384;2023-02-15T08:23:39;3.20;99.90
14934;DHT22;7560;51.364;12.384;2023-02-15T08:28:42;3.20;99.90
14934;DHT22;7560;51.364;12.384;2023-02-15T08:33:46;3.30;99.90
14934;DHT22;7560;51.364;12.384;2023-02-15T08:38:50;3.50;99.90
14934;DHT22;7560;51.364;12.384;2023-02-15T08:43:53;3.40;99.90
14934;DHT22;7560;51.364;12.384;2023-02-15T08:48:57;3.50;99.90
14934;DHT22;7560;51.364;12.384;2023-02-15T08:54:02;3.70;99.90
14934;DHT22;7560;51.364;12.384;2023-02-15T08:59:07;3.70;99.90
14934;DHT22;7560;51.364;12.384;2023-02-15T09:04:12;3.80;99.90
14934;DHT22;7560;51.364;12.384;2023-02-15T09:09:17;3.90;99.90
14934;DHT22;7560;51.364;12.384;2023-02-15T09:14:20;3.90;99.90
14934;DHT22;7560;51.364;12.384;2023-02-15T09:19:23;4.10;99.90
14934;DHT22;7560;51.364;12.384;2023-02-15T09:24:27;4.20;99.90
14934;DHT22;7560;51.364;12.384;2023-02-15T09:29:31;4.30;99.90
14934;DHT22;7560;51.364;12.384;2023-02-15T09:34:33;4.50;99.90
14934;DHT22;7560;51.364;12.384;2023-02-15T09:39:37;4.60;99.90
14934;DHT22;7560;51.364;12.384;2023-02-15T10:01:34;5.30;99.90
14934;DHT22;7560;51.364;12.384;2023-02-15T10:07:21;5.40;99.90
14934;DHT22;7560;51.364;12.384;2023-02-15T10:12:49;5.50;99.90
14934;DHT22;7560;51.364;12.384;2023-02-15T10:18:21;5.60;99.90
14934;DHT22;7560;51.364;12.384;2023-02-15T10:29:05;5.80;99.90
14934;DHT22;7560;51.364;12.384;2023-02-15T10:34:22;5.90;99.90
14934;DHT22;7560;51.364;12.384;2023-02-15T10:45:01;6.10;99.90
14934;DHT22;7560;51.364;12.384;2023-02-15T10:55:40;6.30;99.90
14934;DHT22;7560;51.364;12.384;2023-02-15T11:00:55;6.60;99.90
14934;DHT22;7560;51.364;12.384;2023-02-15T11:06:09;6.60;99.90
14934;DHT22;7560;51.364;12.384;2023-02-15T11:11:40;6.60;99.90
14934;DHT22;7560;51.364;12.384;2023-02-15T11:16:45;6.70;99.90
14934;DHT22;7560;51.364;12.384;2023-02-15T11:21:57;6.90;99.90
14934;DHT22;7560;51.364;12.384;2023-02-15T11:32:18;7.20;99.90
14934;DHT22;7560;51.364;12.384;2023-02-15T11:37:37;7.40;99.90
14934;DHT22;7560;51.364;12.384;2023-02-15T11:42:41;7.50;99.90
14934;DHT22;7560;51.364;12.384;2023-02-15T11:47:44;7.70;99.90
14934;DHT22;7560;51.364;12.384;2023-02-15T11:52:46;7.60;99.90
14934;DHT22;7560;51.364;12.384;2023-02-15T12:03:50;7.70;99.90
14934;DHT22;7560;51.364;12.384;2023-02-15T12:09:32;7.70;99.90
14934;DHT22;7560;51.364;12.384;2023-02-15T12:14:47;7.90;99.90
14934;DHT22;7560;51.364;12.384;2023-02-15T12:19:52;7.90;99.90
14934;DHT22;7560;51.364;12.384;2023-02-15T12:25:01;7.90;99.90
14934;DHT22;7560;51.364;12.384;2023-02-15T12:30:29;8.10;99.90
14934;DHT22;7560;51.364;12.384;2023-02-15T12:35:36;8.20;99.90
14934;DHT22;7560;51.364;12.384;2023-02-15T12:40:39;8.20;99.90
14934;DHT22;7560;51.364;12.384;2023-02-15T12:45:41;8.30;99.90
14934;DHT22;7560;51.364;12.384;2023-02-15T12:50:46;8.40;99.90
14934;DHT22;7560;51.364;12.384;2023-02-15T12:55:57;8.40;99.90
14934;DHT22;7560;51.364;12.384;2023-02-15T13:06:05;8.70;99.90
14934;DHT22;7560;51.364;12.384;2023-02-15T13:11:11;8.80;99.90
14934;DHT22;7560;51.364;12.384;2023-02-15T13:16:17;8.70;99.90
14934;DHT22;7560;51.364;12.384;2023-02-15T13:21:29;8.90;99.90
14934;DHT22;7560;51.364;12.384;2023-02-15T13:26:35;9.10;99.90
14934;DHT22;7560;51.364;12.384;2023-02-15T13:31:38;9.10;99.90
14934;DHT22;7560;51.364;12.384;2023-02-15T13:37:01;9.30;99.90
14934;DHT22;7560;51.364;12.384;2023-02-15T13:52:46;9.70;99.90
14934;DHT22;7560;51.364;12.384;2023-02-15T14:03:50;10.20;99.90
14934;DHT22;7560;51.364;12.384;2023-02-15T14:09:16;10.50;99.90
14934;DHT22;7560;51.364;12.384;2023-02-15T14:25:13;11.10;99.90
14934;DHT22;7560;51.364;12.384;2023-02-15T14:30:20;11.30;99.90
14934;DHT22;7560;51.364;12.384;2023-02-15T14:35:26;11.30;99.90
14934;DHT22;7560;51.364;12.384;2023-02-15T15:02:13;11.80;99.90
14934;DHT22;7560;51.364;12.384;2023-02-15T15:07:23;11.60;99.90
14934;DHT22;7560;51.364;12.384;2023-02-15T15:22:41;11.40;99.90
14934;DHT22;7560;51.364;12.384;2023-02-15T15:27:46;11.70;99.90
14934;DHT22;7560;51.364;12.384;2023-02-15T15:38:07;12.10;99.90
14934;DHT22;7560;51.364;12.384;2023-02-15T15:49:23;11.30;99.90
14934;DHT22;7560;51.364;12.384;2023-02-15T15:54:26;10.90;99.90
14934;DHT22;7560;51.364;12.384;2023-02-15T15:59:30;10.60;99.90
14934;DHT22;7560;51.364;12.384;2023-02-15T16:04:34;10.40;99.90
14934;DHT22;7560;51.364;12.384;2023-02-15T16:09:37;10.10;99.90
14934;DHT22;7560;51.364;12.384;2023-02-15T16:14:40;9.90;99.90
14934;DHT22;7560;51.364;12.384;2023-02-15T16:19:43;9.60;99.90
14934;DHT22;7560;51.364;12.384;2023-02-15T16:29:50;9.40;99.90
14934;DHT22;7560;51.364;12.384;2023-02-15T16:35:12;9.10;99.90
14934;DHT22;7560;51.364;12.384;2023-02-15T16:45:26;8.80;99.90
14934;DHT22;7560;51.364;12.384;2023-02-15T16:50:34;8.70;99.90
14934;DHT22;7560;51.364;12.384;2023-02-15T16:55:40;8.60;99.90
14934;DHT22;7560;51.364;12.384;2023-02-15T17:00:43;8.60;99.90
14934;DHT22;7560;51.364;12.384;2023-02-15T17:06:00;8.40;99.90
14934;DHT22;7560;51.364;12.384;2023-02-15T17:11:22;8.40;99.90
14934;DHT22;7560;51.364;12.384;2023-02-15T17:16:31;8.20;99.90
14934;DHT22;7560;51.364;12.384;2023-02-15T17:21:42;8.10;99.90
14934;DHT22;7560;51.364;12.384;2023-02-15T17:26:50;8.00;99.90
14934;DHT22;7560;51.364;12.384;2023-02-15T17:31:55;7.90;99.90
14934;DHT22;7560;51.364;12.384;2023-02-15T17:36:59;7.70;99.90
14934;DHT22;7560;51.364;12.384;2023-02-15T17:42:01;8.00;99.90
14934;DHT22;7560;51.364;12.384;2023-02-15T17:47:03;7.70;99.90
14934;DHT22;7560;51.364;12.384;2023-02-15T17:52:08;7.50;99.90
14934;DHT22;7560;51.364;12.384;2023-02-15T17:57:15;7.50;99.90
14934;DHT22;7560;51.364;12.384;2023-02-15T18:02:17;7.40;99.90
14934;DHT22;7560;51.364;12.384;2023-02-15T18:07:37;7.30;99.90
14934;DHT22;7560;51.364;12.384;2023-02-15T18:12:58;7.40;99.90
14934;DHT22;7560;51.364;12.384;2023-02-15T18:17:59;7.40;99.90
14934;DHT22;7560;51.364;12.384;2023-02-15T18:23:02;7.50;99.90
14934;DHT22;7560;51.364;12.384;2023-02-15T18:28:04;7.40;99.90
14934;DHT22;7560;51.364;12.384;2023-02-15T18:33:28;7.50;99.90
14934;DHT22;7560;51.364;12.384;2023-02-15T18:38:33;7.40;99.90
14934;DHT22;7560;51.364;12.384;2023-02-15T18:43:35;7.20;99.90
14934;DHT22;7560;51.364;12.384;2023-02-15T18:48:37;7.30;99.90
14934;DHT22;7560;51.364;12.384;2023-02-15T18:53:38;7.20;99.90
14934;DHT22;7560;51.364;12.384;2023-02-15T18:58:40;7.20;99.90
14934;DHT22;7560;51.364;12.384;2023-02-15T19:03:48;7.20;99.90
14934;DHT22;7560;51.364;12.384;2023-02-15T19:08:50;7.20;99.90
14934;DHT22;7560;51.364;12.384;2023-02-15T19:13:53;7.30;99.90
14934;DHT22;7560;51.364;12.384;2023-02-15T19:18:55;7.30;99.90
14934;DHT22;7560;51.364;12.384;2023-02-15T19:24:12;7.30;99.90
14934;DHT22;7560;51.364;12.384;2023-02-15T19:29:23;7.20;99.90
14934;DHT22;7560;51.364;12.384;2023-02-15T19:34:26;7.20;99.90
14934;DHT22;7560;51.364;12.384;2023-02-15T19:39:37;7.20;99.90
14934;DHT22;7560;51.364;12.384;2023-02-15T19:44:40;7.20;99.90
14934;DHT22;7560;51.364;12.384;2023-02-15T19:49:44;7.10;99.90
14934;DHT22;7560;51.364;12.384;2023-02-15T19:54:47;7.10;99.90
14934;DHT22;7560;51.364;12.384;2023-02-15T19:59:49;7.00;99.90
14934;DHT22;7560;51.364;12.384;2023-02-15T20:04:51;6.90;99.90
14934;DHT22;7560;51.364;12.384;2023-02-15T20:09:52;6.80;99.90
14934;DHT22;7560;51.364;12.384;2023-02-15T20:14:55;6.70;99.90
14934;DHT22;7560;51.364;12.384;2023-02-15T20:19:59;6.60;99.90
14934;DHT22;7560;51.364;12.384;2023-02-15T20:25:01;6.50;99.90
14934;DHT22;7560;51.364;12.384;2023-02-15T20:30:05;6.40;99.90
14934;DHT22;7560;51.364;12.384;2023-02-15T20:35:19;6.40;99.90
14934;DHT22;7560;51.364;12.384;2023-02-15T20:40:27;6.30;99.90
14934;DHT22;7560;51.364;12.384;2023-02-15T20:45:31;6.30;99.90
14934;DHT22;7560;51.364;12.384;2023-02-15T20:50:34;6.20;99.90
14934;DHT22;7560;51.364;12.384;2023-02-15T20:55:36;6.20;99.90
14934;DHT22;7560;51.364;12.384;2023-02-15T21:00:38;6.10;99.90
14934;DHT22;7560;51.364;12.384;2023-02-15T21:05:42;6.10;99.90
14934;DHT22;7560;51.364;12.384;2023-02-15T21:10:47;6.10;99.90
14934;DHT22;7560;51.364;12.384;2023-02-15T21:15:52;6.00;99.90
14934;DHT22;7560;51.364;12.384;2023-02-15T21:20:56;6.00;99.90
14934;DHT22;7560;51.364;12.384;2023-02-15T21:25:59;5.90;99.90
14934;DHT22;7560;51.364;12.384;2023-02-15T21:31:01;5.80;99.90
14934;DHT22;7560;51.364;12.384;2023-02-15T21:36:07;5.70;99.90
14934;DHT22;7560;51.364;12.384;2023-02-15T21:41:18;5.60;99.90
14934;DHT22;7560;51.364;12.384;2023-02-15T21:46:39;5.50;99.90
14934;DHT22;7560;51.364;12.384;2023-02-15T21:51:59;5.50;99.90
14934;DHT22;7560;51.364;12.384;2023-02-15T21:57:15;5.40;99.90
14934;DHT22;7560;51.364;12.384;2023-02-15T22:02:26;5.30;99.90
14934;DHT22;7560;51.364;12.384;2023-02-15T22:07:28;5.30;99.90
14934;DHT22;7560;51.364;12.384;2023-02-15T22:12:30;5.20;99.90
14934;DHT22;7560;51.364;12.384;2023-02-15T22:17:32;5.10;99.90
14934;DHT22;7560;51.364;12.384;2023-02-15T22:22:35;5.10;99.90
14934;DHT22;7560;51.364;12.384;2023-02-15T22:27:38;5.10;99.90
14934;DHT22;7560;51.364;12.384;2023-02-15T22:32:42;5.00;99.90
14934;DHT22;7560;51.364;12.384;2023-02-15T22:37:46;4.90;99.90
14934;DHT22;7560;51.364;12.384;2023-02-15T22:42:51;4.90;99.90
14934;DHT22;7560;51.364;12.384;2023-02-15T22:47:55;4.90;99.90
14934;DHT22;7560;51.364;12.384;2023-02-15T22:53:01;4.90;99.90
14934;DHT22;7560;51.364;12.384;2023-02-15T22:58:16;4.80;99.90
14934;DHT22;7560;51.364;12.384;2023-02-15T23:03:25;4.80;99.90
14934;DHT22;7560;51.364;12.384;2023-02-15T23:08:27;4.80;99.90
14934;DHT22;7560;51.364;12.384;2023-02-15T23:13:31;4.70;99.90
14934;DHT22;7560;51.364;12.384;2023-02-15T23:18:41;4.70;99.90
14934;DHT22;7560;51.364;12.384;2023-02-15T23:23:44;4.70;99.90
14934;DHT22;7560;51.364;12.384;2023-02-15T23:28:48;4.70;99.90
14934;DHT22;7560;51.364;12.384;2023-02-15T23:33:51;4.50;99.90
14934;DHT22;7560;51.364;12.384;2023-02-15T23:38:55;4.60;99.90
14934;DHT22;7560;51.364;12.384;2023-02-15T23:44:00;4.50;99.90
14934;DHT22;7560;51.364;12.384;2023-02-15T23:49:03;4.50;99.90
14934;DHT22;7560;51.364;12.384;2023-02-15T23:54:17;4.50;99.90
14934;DHT22;7560;51.364;12.384;2023-02-15T23:59:23;4.40;99.90
